Destinations Alicante International Airport

Alicante International Airport (LEAL / ALC)

Flights to Alicante International Airport

Flight number From ETE Dispatch
SPY-2236 EGFF Cardiff International Airport 02:30
SPY-408 EHGG Groningen Airport Eelde 03:00

Flights from Alicante International Airport

Flight number To ETE Dispatch
SPY-2237 EGFF Cardiff International Airport 02:40
SPY-409 EHGG Groningen Airport Eelde
About

Alicante International Airport facts

Alicante International Airport is located in Alicante at an elevation of 43.3 meters or 142 feet.

Currently, Speedy Airlines serves 4 flights to and from Alicante International Airport.

Detailed airport info

Route map

Weather

Current weather

METAR

METAR

Metar data retrieved Sunday, 21 July 2024 at 19:55 UTC

LEAL 211930Z 07012KT CAVOK 26/22 Q1013 NOSIG
Wind Temperature
12 kt 26c